Time;durP1;ratioP1;P1;durP2;ratioP2;P2;SDS_P1;SDS_P2;PMS_P1;PMS_P2;Temp;Humidity;BMP_temperature;BMP_pressure;BME280_temperature;BME280_humidity;BME280_pressure;Samples;Min_cycle;Max_cycle;Signal;HPM_P1;HPM_P2
2022/08/05 00:02:06;;;;;;;6.35;2.55;;;22.20;93.30;;;;;;5009891;28;20516;-74
2022/08/05 00:04:31;;;;;;;5.75;2.40;;;22.20;93.30;;;;;;5011445;28;20030;-74
2022/08/05 00:06:57;;;;;;;5.32;2.08;;;22.30;93.20;;;;;;5009748;28;20061;-75
2022/08/05 00:09:22;;;;;;;6.25;2.13;;;22.30;93.20;;;;;;5011248;28;20022;-75
2022/08/05 00:11:48;;;;;;;5.13;2.38;;;22.30;93.20;;;;;;5005857;28;20084;-74
2022/08/05 00:14:14;;;;;;;7.53;2.45;;;22.30;93.20;;;;;;5012847;28;20018;-75
2022/08/05 00:16:40;;;;;;;4.63;2.00;;;22.30;93.10;;;;;;5014269;28;20026;-75
2022/08/05 00:19:06;;;;;;;4.75;2.10;;;22.30;93.10;;;;;;5014732;28;20072;-76
2022/08/05 00:21:31;;;;;;;5.10;2.17;;;22.30;93.10;;;;;;5014350;28;20057;-74
2022/08/05 00:23:59;;;;;;;4.85;2.10;;;22.30;93.10;;;;;;5013550;28;20057;-75
2022/08/05 00:26:25;;;;;;;5.13;2.03;;;22.30;93.10;;;;;;5014278;28;20030;-74
2022/08/05 00:28:51;;;;;;;4.95;2.25;;;22.30;93.20;;;;;;5014180;28;20022;-75
2022/08/05 00:31:16;;;;;;;5.75;2.40;;;22.30;93.20;;;;;;5013857;28;20021;-74
2022/08/05 00:33:42;;;;;;;4.93;2.30;;;22.20;93.20;;;;;;5013100;28;20041;-74
2022/08/05 00:36:07;;;;;;;5.18;2.20;;;22.20;93.20;;;;;;5014570;28;20026;-74
2022/08/05 00:38:33;;;;;;;5.20;2.33;;;22.20;93.30;;;;;;5014382;28;20509;-74
2022/08/05 00:40:59;;;;;;;4.72;2.20;;;22.20;93.30;;;;;;5012970;28;20026;-75
2022/08/05 00:43:24;;;;;;;4.60;2.10;;;22.20;93.30;;;;;;5013080;28;20034;-73
2022/08/05 00:45:50;;;;;;;5.57;2.10;;;22.20;93.30;;;;;;5013581;28;20025;-73
2022/08/05 00:48:18;;;;;;;4.40;2.15;;;22.20;93.30;;;;;;5014175;28;20033;-74
2022/08/05 00:50:45;;;;;;;5.68;2.50;;;22.20;93.30;;;;;;4994376;28;20050;-74
2022/08/05 00:53:11;;;;;;;4.60;2.03;;;22.20;93.30;;;;;;4994331;28;20491;-74
2022/08/05 00:55:37;;;;;;;5.45;2.10;;;22.20;93.30;;;;;;5004271;28;20041;-74
2022/08/05 00:58:03;;;;;;;4.50;2.10;;;22.30;93.30;;;;;;5013689;28;20115;-74
2022/08/05 01:00:29;;;;;;;5.47;2.17;;;22.30;93.20;;;;;;5013443;28;20022;-74
2022/08/05 01:02:56;;;;;;;5.53;2.00;;;22.30;93.10;;;;;;5014048;28;20030;-74
2022/08/05 01:05:23;;;;;;;6.47;2.30;;;22.30;93.10;;;;;;5014088;28;20021;-74
2022/08/05 01:07:49;;;;;;;6.57;2.17;;;22.30;93.10;;;;;;5014020;28;20469;-75
2022/08/05 01:10:17;;;;;;;5.97;2.10;;;22.30;93.10;;;;;;5011973;28;20022;-74
2022/08/05 01:12:50;;;;;;;3.85;1.90;;;22.20;93.00;;;;;;5012251;28;20025;-75
2022/08/05 01:15:20;;;;;;;6.32;2.28;;;22.20;93.10;;;;;;5012899;28;20034;-74
2022/08/05 01:17:51;;;;;;;4.22;2.00;;;22.30;93.20;;;;;;5012131;28;20022;-73
2022/08/05 01:20:35;;;;;;;4.53;1.85;;;22.20;93.20;;;;;;5011905;28;20084;-74
2022/08/05 01:23:22;;;;;;;4.47;2.03;;;22.20;93.20;;;;;;5011633;28;20029;-74
2022/08/05 01:26:32;;;;;;;4.95;2.20;;;22.20;93.20;;;;;;4991872;28;20030;-74
2022/08/05 01:29:02;;;;;;;3.92;1.85;;;22.20;93.30;;;;;;5003959;28;20030;-75
2022/08/05 01:31:37;;;;;;;5.95;2.60;;;22.20;93.30;;;;;;5010920;28;20030;-75
2022/08/05 01:34:14;;;;;;;3.45;1.75;;;22.20;93.30;;;;;;5011551;28;20025;-74
2022/08/05 01:36:46;;;;;;;4.72;2.33;;;22.20;93.30;;;;;;5013360;28;20021;-74
2022/08/05 01:39:14;;;;;;;4.45;1.80;;;22.20;93.30;;;;;;5013135;28;20096;-73
2022/08/05 01:41:41;;;;;;;4.47;2.13;;;22.20;93.30;;;;;;5013005;28;20021;-75
2022/08/05 01:44:09;;;;;;;4.93;2.10;;;22.20;93.20;;;;;;5011744;28;20025;-74
2022/08/05 01:46:35;;;;;;;5.72;2.40;;;22.20;93.10;;;;;;5012493;28;20038;-75
2022/08/05 01:49:02;;;;;;;4.18;2.10;;;22.30;93.30;;;;;;5011756;28;20026;-75
2022/08/05 01:51:32;;;;;;;5.25;1.98;;;22.30;93.10;;;;;;5012503;28;20021;-74
2022/08/05 01:53:59;;;;;;;4.35;1.90;;;22.30;93.00;;;;;;5011660;28;20071;-74
2022/08/05 01:56:29;;;;;;;4.30;1.90;;;22.30;93.00;;;;;;5011866;28;20038;-75
2022/08/05 01:58:56;;;;;;;4.30;1.88;;;22.30;93.00;;;;;;5010158;28;20053;-74
2022/08/05 02:01:24;;;;;;;5.20;2.28;;;22.30;93.10;;;;;;5011323;28;20032;-74
2022/08/05 02:03:52;;;;;;;5.85;1.80;;;22.20;93.10;;;;;;5012280;28;20118;-75
2022/08/05 02:06:18;;;;;;;5.03;1.95;;;22.20;93.20;;;;;;5012812;28;20025;-73
2022/08/05 02:08:44;;;;;;;4.43;2.00;;;22.20;93.20;;;;;;5010962;28;20125;-75
2022/08/05 02:11:12;;;;;;;5.13;1.95;;;22.20;93.30;;;;;;5012471;28;20072;-75
2022/08/05 02:13:59;;;;;;;4.68;1.98;;;22.20;93.30;;;;;;5012112;28;20030;-74
2022/08/05 02:16:31;;;;;;;4.15;2.28;;;22.20;93.30;;;;;;5012420;28;20022;-76
2022/08/05 02:19:16;;;;;;;4.65;2.10;;;22.10;93.30;;;;;;5012440;28;20506;-75
2022/08/05 02:21:49;;;;;;;4.97;2.00;;;22.20;93.40;;;;;;5011050;28;20022;-74
2022/08/05 02:24:19;;;;;;;3.90;1.73;;;22.20;93.40;;;;;;5011165;28;20072;-74
2022/08/05 02:27:00;;;;;;;5.15;1.70;;;22.20;93.40;;;;;;5012199;28;20014;-74
2022/08/05 02:29:28;;;;;;;3.78;1.80;;;22.20;93.30;;;;;;5011915;28;20381;-76
2022/08/05 02:31:56;;;;;;;4.30;1.88;;;22.20;93.30;;;;;;5011673;28;20034;-74
2022/08/05 02:34:25;;;;;;;5.07;2.20;;;22.20;93.20;;;;;;5012321;28;20109;-75
2022/08/05 02:36:54;;;;;;;3.95;1.90;;;22.20;93.20;;;;;;5004221;28;20021;-74
2022/08/05 02:39:21;;;;;;;3.25;1.60;;;22.30;93.10;;;;;;5025535;28;20017;-74
2022/08/05 02:41:48;;;;;;;5.05;2.00;;;22.20;93.10;;;;;;5012200;28;20037;-73
2022/08/05 02:44:14;;;;;;;5.95;2.00;;;22.20;93.30;;;;;;5011607;28;20076;-75
2022/08/05 02:46:43;;;;;;;3.97;2.00;;;22.20;93.10;;;;;;5011619;28;20033;-74
2022/08/05 02:49:10;;;;;;;3.90;1.85;;;22.20;93.20;;;;;;5012137;28;20018;-74
2022/08/05 02:51:37;;;;;;;4.53;2.03;;;22.20;93.20;;;;;;5010172;28;20033;-74
2022/08/05 02:54:05;;;;;;;4.22;2.08;;;22.20;93.20;;;;;;5010537;28;20037;-73
2022/08/05 02:56:32;;;;;;;4.30;1.90;;;22.20;93.30;;;;;;5012394;28;20029;-74
2022/08/05 02:58:59;;;;;;;5.35;1.80;;;22.20;93.30;;;;;;5010174;28;20121;-74
2022/08/05 03:01:26;;;;;;;4.88;2.30;;;22.20;93.30;;;;;;5011158;28;20109;-74
2022/08/05 03:03:54;;;;;;;5.57;2.20;;;22.20;93.30;;;;;;5010493;28;20137;-74
2022/08/05 03:06:20;;;;;;;3.67;1.88;;;22.10;93.30;;;;;;5011826;28;20053;-74
2022/08/05 03:08:47;;;;;;;3.67;1.80;;;22.10;93.30;;;;;;5011694;28;20439;-74
2022/08/05 03:11:23;;;;;;;4.28;1.90;;;22.20;93.40;;;;;;5011378;28;20018;-74
2022/08/05 03:13:49;;;;;;;5.15;2.03;;;22.20;93.40;;;;;;5010713;28;20030;-75
2022/08/05 03:16:15;;;;;;;4.60;1.90;;;22.10;93.30;;;;;;5010274;28;20109;-74
2022/08/05 03:18:41;;;;;;;3.53;1.85;;;22.20;93.30;;;;;;5011729;28;20097;-75
2022/08/05 03:21:06;;;;;;;3.22;1.70;;;22.20;93.20;;;;;;5010256;28;20533;-75
2022/08/05 03:23:33;;;;;;;4.13;1.85;;;22.20;93.20;;;;;;5011166;28;20099;-74
2022/08/05 03:26:00;;;;;;;4.20;1.80;;;22.20;93.10;;;;;;5012244;28;20084;-74
2022/08/05 03:28:27;;;;;;;4.63;1.88;;;22.20;93.10;;;;;;5010086;28;20032;-74
2022/08/05 03:30:53;;;;;;;5.35;2.13;;;22.20;93.10;;;;;;5010959;28;20026;-74
2022/08/05 03:33:19;;;;;;;4.70;2.13;;;22.20;93.10;;;;;;5010130;28;20394;-74
2022/08/05 03:35:46;;;;;;;3.40;1.70;;;22.20;93.20;;;;;;5010074;28;20084;-74
2022/08/05 03:38:12;;;;;;;4.28;2.20;;;22.20;93.20;;;;;;5008971;28;20527;-75
2022/08/05 03:40:42;;;;;;;3.13;1.70;;;22.20;93.30;;;;;;5010960;28;20109;-74
2022/08/05 03:43:07;;;;;;;4.82;2.17;;;22.20;93.30;;;;;;5011366;28;20026;-74
2022/08/05 03:45:33;;;;;;;4.43;2.10;;;22.10;93.30;;;;;;5010063;28;20056;-73
2022/08/05 03:47:58;;;;;;;3.92;1.90;;;22.10;93.30;;;;;;5011568;28;20084;-75
2022/08/05 03:50:32;;;;;;;5.13;1.80;;;22.10;93.30;;;;;;5013629;28;20073;-74
2022/08/05 03:53:10;;;;;;;4.47;1.88;;;22.10;93.40;;;;;;5013789;28;20033;-74
2022/08/05 03:55:41;;;;;;;5.82;2.17;;;22.10;93.40;;;;;;5014912;28;20050;-73
2022/08/05 03:58:10;;;;;;;4.53;1.80;;;22.10;93.40;;;;;;5015044;28;20022;-80
2022/08/05 04:00:38;;;;;;;4.68;2.13;;;22.10;93.40;;;;;;5010068;28;20034;-73
2022/08/05 04:03:06;;;;;;;4.57;2.10;;;22.10;93.30;;;;;;5011657;28;20030;-74
2022/08/05 04:05:33;;;;;;;4.15;1.90;;;22.10;93.30;;;;;;5012331;28;20030;-74
2022/08/05 04:08:05;;;;;;;3.83;1.85;;;22.20;93.20;;;;;;5012681;28;20570;-74
2022/08/05 04:10:31;;;;;;;4.47;2.05;;;22.20;93.20;;;;;;5010996;28;20029;-74
2022/08/05 04:12:57;;;;;;;3.28;1.77;;;22.20;93.10;;;;;;5014186;28;20498;-74
2022/08/05 04:15:22;;;;;;;4.53;1.83;;;22.20;93.10;;;;;;5013619;28;20072;-71
2022/08/05 04:17:48;;;;;;;4.53;2.00;;;22.20;93.10;;;;;;5014308;28;20010;-75
2022/08/05 04:20:21;;;;;;;4.63;1.85;;;22.20;93.10;;;;;;5013969;28;20486;-74
2022/08/05 04:22:47;;;;;;;5.70;2.10;;;22.20;93.20;;;;;;4996873;28;20034;-74
2022/08/05 04:25:13;;;;;;;3.40;1.95;;;22.20;93.20;;;;;;5014040;28;20034;-74
2022/08/05 04:27:38;;;;;;;4.95;2.30;;;22.10;93.20;;;;;;5013665;28;20041;-76
2022/08/05 04:30:05;;;;;;;3.67;1.80;;;22.20;93.30;;;;;;5012080;28;20115;-76
2022/08/05 04:32:31;;;;;;;4.07;2.10;;;22.10;93.30;;;;;;5014499;28;20113;-74
2022/08/05 04:34:56;;;;;;;4.15;1.90;;;22.10;93.30;;;;;;5012573;28;20210;-76
2022/08/05 04:37:22;;;;;;;4.70;1.70;;;22.10;93.30;;;;;;5021672;28;20034;-76
2022/08/05 04:39:48;;;;;;;3.08;1.90;;;22.10;93.60;;;;;;5027840;28;20051;-75
2022/08/05 04:42:14;;;;;;;4.28;2.10;;;22.10;93.40;;;;;;5034468;28;20032;-77
2022/08/05 04:44:39;;;;;;;4.13;2.15;;;22.10;93.40;;;;;;5026182;28;20410;-75
2022/08/05 04:47:05;;;;;;;4.25;2.22;;;22.10;93.40;;;;;;5014443;28;20045;-76
2022/08/05 04:49:31;;;;;;;4.05;1.95;;;22.10;93.40;;;;;;5014309;28;20026;-75
2022/08/05 04:51:56;;;;;;;5.03;2.25;;;22.20;93.30;;;;;;5012849;28;20026;-76
2022/08/05 04:54:25;;;;;;;3.78;1.75;;;22.10;93.20;;;;;;5014407;28;20026;-75
2022/08/05 04:56:54;;;;;;;4.35;1.85;;;22.20;93.20;;;;;;5014407;28;20018;-76
2022/08/05 04:59:21;;;;;;;3.50;2.00;;;22.20;93.20;;;;;;5014176;28;20018;-77
2022/08/05 05:01:47;;;;;;;4.32;1.98;;;22.20;93.10;;;;;;5013726;28;20030;-75
2022/08/05 05:04:13;;;;;;;4.72;2.30;;;22.20;93.10;;;;;;5012978;28;20025;-77
2022/08/05 05:06:38;;;;;;;10.70;5.10;;;22.10;93.00;;;;;;5003513;28;20022;-76
2022/08/05 05:09:04;;;;;;;11.45;6.13;;;21.90;91.10;;;;;;5013786;28;20034;-76
2022/08/05 05:11:29;;;;;;;9.82;5.93;;;21.70;90.60;;;;;;5019086;28;20092;-76
2022/08/05 05:13:55;;;;;;;13.93;6.70;;;21.50;90.90;;;;;;5012156;28;20026;-76
2022/08/05 05:16:20;;;;;;;12.05;6.82;;;21.10;90.50;;;;;;5013206;28;20501;-76
2022/08/05 05:18:46;;;;;;;14.30;7.22;;;20.60;91.70;;;;;;5012227;28;20022;-76
2022/08/05 05:21:11;;;;;;;11.75;6.68;;;20.30;92.70;;;;;;5012907;28;20030;-75
2022/08/05 05:23:37;;;;;;;11.90;6.70;;;20.30;92.70;;;;;;5015923;28;20172;-76
2022/08/05 05:26:03;;;;;;;11.57;6.82;;;20.30;92.70;;;;;;5011002;28;20026;-75
2022/08/05 05:28:28;;;;;;;12.43;7.05;;;20.30;92.70;;;;;;5010910;28;20034;-81
2022/08/05 05:30:54;;;;;;;12.73;6.30;;;20.40;92.60;;;;;;5013396;28;20044;-76
2022/08/05 05:33:19;;;;;;;11.50;6.10;;;20.50;92.40;;;;;;5010304;28;20108;-76
2022/08/05 05:35:45;;;;;;;12.68;6.28;;;20.70;92.10;;;;;;5011764;28;20030;-76
2022/08/05 05:38:11;;;;;;;12.00;5.72;;;20.90;91.80;;;;;;5012389;28;20021;-77
2022/08/05 05:40:37;;;;;;;9.68;5.80;;;21.00;91.40;;;;;;5011450;28;20160;-75
2022/08/05 05:43:02;;;;;;;10.77;6.03;;;21.20;91.60;;;;;;5013459;28;20442;-76
2022/08/05 05:45:28;;;;;;;11.52;5.85;;;21.40;91.10;;;;;;5011645;28;20057;-76
2022/08/05 05:47:54;;;;;;;13.07;5.35;;;21.50;90.90;;;;;;5013284;28;20048;-76
2022/08/05 05:50:20;;;;;;;10.45;5.28;;;21.60;90.70;;;;;;5013073;28;20026;-75
2022/08/05 05:52:47;;;;;;;13.48;5.55;;;21.60;90.70;;;;;;5013005;28;20088;-75
2022/08/05 05:55:14;;;;;;;11.63;5.43;;;21.60;90.60;;;;;;5013327;28;20025;-75
2022/08/05 05:57:42;;;;;;;11.15;4.97;;;21.60;90.70;;;;;;5011822;28;20406;-74
2022/08/05 06:00:11;;;;;;;9.05;4.90;;;21.60;90.80;;;;;;5011448;28;20018;-76
2022/08/05 06:02:37;;;;;;;12.27;5.25;;;21.60;90.90;;;;;;5011831;28;20045;-75
2022/08/05 06:05:03;;;;;;;11.45;4.88;;;21.60;90.90;;;;;;5012045;28;20533;-75
2022/08/05 06:07:28;;;;;;;9.65;5.35;;;21.60;90.90;;;;;;5013098;28;20045;-75
2022/08/05 06:09:54;;;;;;;10.05;5.43;;;21.60;90.90;;;;;;5012539;28;20030;-75
2022/08/05 06:12:19;;;;;;;9.82;5.20;;;21.60;91.00;;;;;;5012339;28;20034;-75
2022/08/05 06:14:45;;;;;;;9.95;4.40;;;21.60;91.00;;;;;;5011688;28;20453;-75
2022/08/05 06:17:11;;;;;;;8.30;4.45;;;21.70;91.00;;;;;;5012863;28;20088;-75
2022/08/05 06:19:36;;;;;;;9.05;4.63;;;21.60;91.10;;;;;;5011561;28;20425;-75
2022/08/05 06:22:03;;;;;;;10.48;5.38;;;21.60;91.10;;;;;;5012343;28;20037;-75
2022/08/05 06:24:28;;;;;;;8.02;4.93;;;21.60;91.10;;;;;;5011453;28;20501;-76
2022/08/05 06:26:54;;;;;;;8.05;4.30;;;21.70;91.20;;;;;;5012517;28;20037;-76
2022/08/05 06:29:20;;;;;;;9.13;5.13;;;21.70;91.40;;;;;;5012797;28;20026;-76
2022/08/05 06:31:45;;;;;;;9.32;4.65;;;21.80;91.30;;;;;;5012129;28;20461;-76
2022/08/05 06:34:11;;;;;;;8.82;5.00;;;21.80;91.20;;;;;;5011200;28;20029;-75
2022/08/05 06:36:36;;;;;;;8.90;5.07;;;21.80;91.10;;;;;;5012420;28;20030;-76
2022/08/05 06:39:02;;;;;;;9.38;5.20;;;21.80;90.90;;;;;;5012378;28;20487;-75
2022/08/05 06:41:27;;;;;;;8.18;5.10;;;21.80;90.90;;;;;;5012203;28;20025;-74
2022/08/05 06:43:53;;;;;;;9.82;5.25;;;21.70;90.90;;;;;;5011181;28;20037;-75
2022/08/05 06:46:19;;;;;;;9.25;5.05;;;21.70;90.80;;;;;;5012255;28;20022;-74
2022/08/05 06:48:44;;;;;;;9.02;5.10;;;21.70;90.90;;;;;;5012298;28;20037;-76
2022/08/05 06:51:10;;;;;;;9.95;6.03;;;21.70;90.90;;;;;;5010534;28;20028;-76
2022/08/05 06:53:35;;;;;;;8.43;5.30;;;21.70;90.90;;;;;;5010907;28;20092;-76
2022/08/05 06:56:04;;;;;;;7.78;5.00;;;21.70;91.00;;;;;;5011027;28;20037;-75
2022/08/05 06:58:30;;;;;;;9.30;5.78;;;21.70;91.00;;;;;;5012047;28;20102;-75
2022/08/05 07:01:00;;;;;;;8.63;5.55;;;21.70;91.00;;;;;;5011724;28;20033;-75
2022/08/05 07:03:27;;;;;;;8.52;5.90;;;21.70;91.00;;;;;;5012035;28;20022;-75
2022/08/05 07:05:53;;;;;;;9.63;6.38;;;21.70;91.00;;;;;;5010843;28;20034;-75
2022/08/05 07:08:21;;;;;;;9.43;5.90;;;21.70;91.20;;;;;;5011944;28;20034;-75
2022/08/05 07:10:47;;;;;;;9.02;5.88;;;21.70;91.00;;;;;;5011761;28;20056;-76
2022/08/05 07:18:41;;;;;;;10.75;6.18;;;21.70;91.30;;;;;;5011959;28;20105;-75
2022/08/05 07:21:06;;;;;;;9.80;6.25;;;21.80;91.20;;;;;;5011438;28;20101;-75
2022/08/05 07:23:32;;;;;;;8.35;6.05;;;21.80;91.10;;;;;;5012938;28;20026;-75
2022/08/05 07:25:57;;;;;;;9.27;5.88;;;21.80;91.00;;;;;;5014751;28;20045;-75
2022/08/05 07:28:24;;;;;;;13.63;6.60;;;21.80;91.00;;;;;;5014529;28;20495;-76
2022/08/05 07:30:49;;;;;;;10.68;6.82;;;21.80;91.00;;;;;;5015560;28;20053;-74
2022/08/05 07:33:15;;;;;;;9.98;6.18;;;21.70;91.10;;;;;;5014648;28;20057;-76
2022/08/05 07:35:40;;;;;;;9.65;6.43;;;21.70;91.10;;;;;;5014583;28;20454;-75
2022/08/05 07:38:06;;;;;;;8.95;5.85;;;21.70;91.10;;;;;;5015733;28;20022;-75
2022/08/05 07:40:31;;;;;;;9.15;5.95;;;21.70;91.20;;;;;;5013284;28;20511;-73
2022/08/05 07:42:57;;;;;;;11.25;6.70;;;21.70;91.30;;;;;;5013625;28;20034;-75
2022/08/05 07:45:22;;;;;;;12.68;6.70;;;21.70;90.90;;;;;;5014327;28;20029;-75
2022/08/05 07:47:48;;;;;;;12.35;6.82;;;21.50;90.00;;;;;;4999160;28;20116;-74
2022/08/05 07:50:13;;;;;;;13.82;7.25;;;21.30;90.00;;;;;;5009412;28;20550;-76
2022/08/05 07:52:40;;;;;;;10.95;6.72;;;21.20;90.20;;;;;;5013947;28;20033;-76
2022/08/05 07:55:06;;;;;;;10.90;6.65;;;21.10;90.40;;;;;;5014035;28;20032;-76
2022/08/05 07:57:32;;;;;;;12.23;6.32;;;21.00;90.40;;;;;;5013873;28;20029;-75
2022/08/05 07:59:58;;;;;;;12.15;6.75;;;20.90;90.40;;;;;;5013976;28;20033;-76
2022/08/05 08:02:25;;;;;;;9.20;6.25;;;20.90;90.50;;;;;;5014489;28;20549;-76
2022/08/05 08:04:50;;;;;;;10.20;6.60;;;20.90;90.80;;;;;;5013470;28;20105;-75
2022/08/05 08:07:17;;;;;;;11.20;6.50;;;21.10;90.50;;;;;;5013595;28;20570;-75
2022/08/05 08:09:42;;;;;;;9.45;5.88;;;21.30;90.20;;;;;;5013869;28;20376;-75
2022/08/05 08:12:08;;;;;;;9.30;5.93;;;21.40;90.10;;;;;;5012903;28;20084;-76
2022/08/05 08:14:33;;;;;;;11.75;5.97;;;21.50;89.70;;;;;;5014828;28;20060;-74
2022/08/05 08:16:59;;;;;;;11.93;5.60;;;21.50;89.50;;;;;;5014736;28;20447;-75
2022/08/05 08:19:24;;;;;;;10.80;6.00;;;21.60;89.80;;;;;;5014924;28;20029;-76
2022/08/05 08:21:50;;;;;;;9.55;5.60;;;21.60;89.80;;;;;;5014422;28;20418;-75
2022/08/05 08:24:15;;;;;;;9.05;5.35;;;21.60;89.80;;;;;;5014676;28;20104;-76
2022/08/05 08:26:40;;;;;;;9.88;5.30;;;21.60;89.80;;;;;;5014852;28;20483;-74
2022/08/05 08:29:06;;;;;;;8.57;5.55;;;21.50;90.00;;;;;;5014651;28;20032;-75
2022/08/05 08:31:31;;;;;;;10.10;5.50;;;21.60;89.90;;;;;;5014274;28;20544;-75
2022/08/05 08:33:57;;;;;;;8.95;5.57;;;21.60;90.00;;;;;;5014104;28;20037;-75
2022/08/05 08:36:22;;;;;;;8.00;5.35;;;21.60;90.00;;;;;;5013328;28;20569;-75
2022/08/05 08:38:48;;;;;;;10.48;5.75;;;21.60;90.00;;;;;;5013158;28;20021;-75
2022/08/05 08:41:15;;;;;;;9.07;5.43;;;21.60;90.10;;;;;;5014215;28;20113;-75
2022/08/05 08:43:43;;;;;;;8.57;4.70;;;21.60;90.10;;;;;;5014614;28;20073;-75
2022/08/05 08:46:09;;;;;;;8.00;4.90;;;21.60;90.10;;;;;;5014440;28;20065;-74
2022/08/05 08:48:35;;;;;;;9.90;5.03;;;21.60;90.30;;;;;;5014433;28;20041;-75
2022/08/05 08:51:02;;;;;;;7.45;4.50;;;21.60;90.40;;;;;;5012504;28;20056;-74
2022/08/05 08:53:37;;;;;;;8.77;4.82;;;21.60;90.50;;;;;;5014009;28;20406;-74
2022/08/05 08:56:04;;;;;;;8.77;5.50;;;21.70;90.50;;;;;;5013151;28;20101;-75
2022/08/05 08:58:30;;;;;;;7.53;4.88;;;21.60;90.20;;;;;;5012908;28;20080;-74
2022/08/05 09:00:56;;;;;;;8.52;4.78;;;21.70;90.30;;;;;;5013685;28;20574;-75
2022/08/05 09:03:23;;;;;;;8.43;5.07;;;21.70;90.20;;;;;;5012658;28;20120;-75
2022/08/05 09:05:48;;;;;;;9.07;5.40;;;21.70;90.30;;;;;;5013866;28;20497;-74
2022/08/05 09:08:15;;;;;;;8.18;5.30;;;21.70;90.20;;;;;;5012705;28;20026;-75
2022/08/05 09:10:43;;;;;;;8.30;5.30;;;21.70;90.30;;;;;;5012235;28;20026;-75
2022/08/05 09:13:12;;;;;;;7.90;5.03;;;21.60;90.30;;;;;;5012442;28;20030;-75
2022/08/05 09:15:38;;;;;;;8.55;5.40;;;21.50;90.30;;;;;;5012674;28;20062;-75
2022/08/05 09:18:07;;;;;;;9.30;5.35;;;21.60;90.40;;;;;;5013611;28;20041;-75
2022/08/05 09:20:32;;;;;;;8.07;5.00;;;21.60;90.40;;;;;;5013352;28;20018;-75
2022/08/05 09:23:16;;;;;;;7.63;5.13;;;21.60;90.50;;;;;;5013601;28;20088;-74
2022/08/05 09:25:44;;;;;;;8.90;5.53;;;21.60;90.50;;;;;;5013582;28;20036;-75
2022/08/05 09:28:19;;;;;;;8.55;5.53;;;21.60;90.40;;;;;;5013629;28;20053;-75
2022/08/05 09:31:11;;;;;;;8.20;5.53;;;21.60;90.60;;;;;;5012038;28;20034;-75
2022/08/05 09:33:48;;;;;;;10.25;6.57;;;21.60;90.50;;;;;;5013361;28;20033;-75
2022/08/05 09:36:14;;;;;;;9.85;6.20;;;21.60;90.40;;;;;;5012059;28;20407;-75
2022/08/05 09:38:55;;;;;;;8.85;6.32;;;21.60;90.50;;;;;;5012131;28;20018;-75
2022/08/05 09:41:20;;;;;;;9.95;6.45;;;21.60;90.60;;;;;;5013077;28;20097;-75
2022/08/05 09:43:46;;;;;;;8.73;6.15;;;21.60;90.50;;;;;;5013307;28;20065;-75
2022/08/05 09:46:31;;;;;;;8.70;6.20;;;21.60;90.60;;;;;;5012480;28;20037;-75
2022/08/05 09:48:58;;;;;;;8.18;6.10;;;21.60;90.40;;;;;;5013451;28;20433;-75
2022/08/05 09:51:36;;;;;;;8.13;5.70;;;21.70;90.40;;;;;;5012798;28;20034;-75
2022/08/05 09:54:07;;;;;;;9.80;5.70;;;21.70;90.40;;;;;;5011697;28;20045;-75
2022/08/05 09:56:34;;;;;;;8.23;5.60;;;21.70;90.40;;;;;;5011767;28;20026;-76
2022/08/05 09:59:04;;;;;;;8.00;5.53;;;21.60;90.40;;;;;;5011832;28;20538;-75
2022/08/05 10:01:35;;;;;;;7.43;5.72;;;21.60;90.40;;;;;;5012572;28;20030;-75
2022/08/05 10:04:04;;;;;;;8.10;5.50;;;21.60;90.40;;;;;;5012876;28;20022;-75
2022/08/05 10:06:31;;;;;;;11.85;5.57;;;21.60;90.50;;;;;;5011756;28;20033;-75
2022/08/05 10:09:14;;;;;;;7.50;5.30;;;21.60;90.60;;;;;;5012607;28;20030;-75
2022/08/05 10:11:41;;;;;;;6.85;4.88;;;21.60;90.60;;;;;;5012451;28;20030;-75
2022/08/05 10:14:24;;;;;;;8.68;4.97;;;21.60;90.70;;;;;;5012741;28;20022;-75
2022/08/05 10:16:50;;;;;;;6.70;4.70;;;21.60;90.70;;;;;;5012944;28;20014;-75
2022/08/05 10:19:16;;;;;;;7.13;4.90;;;21.60;90.50;;;;;;5011727;28;20021;-75
2022/08/05 10:21:42;;;;;;;7.07;4.45;;;21.60;90.50;;;;;;5012531;28;20482;-75
2022/08/05 10:24:11;;;;;;;7.60;4.65;;;21.60;90.60;;;;;;5011107;28;20488;-74
2022/08/05 10:26:41;;;;;;;6.35;4.20;;;21.60;90.60;;;;;;5011267;28;20153;-75
2022/08/05 10:29:07;;;;;;;6.50;4.30;;;21.60;90.50;;;;;;5012482;28;20033;-75
2022/08/05 10:31:33;;;;;;;6.43;3.65;;;21.60;90.60;;;;;;5012050;28;20072;-75
2022/08/05 10:33:59;;;;;;;5.90;3.63;;;21.60;90.50;;;;;;5012308;28;20092;-76
2022/08/05 10:36:24;;;;;;;7.30;3.90;;;21.70;90.40;;;;;;5012641;28;20197;-75
2022/08/05 10:38:55;;;;;;;6.47;3.47;;;21.70;90.40;;;;;;5012605;28;20552;-75
2022/08/05 10:41:33;;;;;;;7.10;3.85;;;21.70;90.30;;;;;;5010898;28;20051;-75
2022/08/05 10:44:09;;;;;;;7.22;4.20;;;21.70;90.30;;;;;;5012001;28;20123;-75
2022/08/05 10:46:46;;;;;;;5.85;3.70;;;21.70;90.40;;;;;;5012083;28;20045;-76
2022/08/05 10:49:12;;;;;;;6.20;3.60;;;21.70;90.40;;;;;;5010775;28;20026;-74
2022/08/05 10:51:49;;;;;;;8.02;3.67;;;21.70;90.40;;;;;;5010752;28;20494;-75
2022/08/05 10:54:16;;;;;;;7.07;3.45;;;21.70;90.50;;;;;;4992391;28;20034;-75
2022/08/05 10:56:47;;;;;;;6.25;3.10;;;21.60;90.50;;;;;;4991236;28;20026;-74
2022/08/05 10:59:18;;;;;;;6.50;3.17;;;21.60;90.50;;;;;;4992322;28;20022;-75
2022/08/05 11:01:44;;;;;;;5.85;2.90;;;21.60;90.50;;;;;;4990809;28;20465;-75
2022/08/05 11:04:16;;;;;;;4.95;2.95;;;21.60;90.50;;;;;;4992257;28;20037;-75
2022/08/05 11:06:57;;;;;;;;;;;21.60;90.50;;;;;;4992808;28;20026;-75
2022/08/05 11:09:24;;;;;;;6.82;3.20;;;21.60;90.50;;;;;;4991418;28;20279;-75
2022/08/05 11:11:51;;;;;;;7.60;3.13;;;21.60;90.50;;;;;;4991612;28;20544;-74
2022/08/05 11:14:26;;;;;;;6.55;3.60;;;21.60;90.50;;;;;;4992171;28;20073;-75
2022/08/05 11:17:26;;;;;;;5.50;2.90;;;21.60;90.50;;;;;;4990877;28;20198;-74
2022/08/05 11:19:54;;;;;;;5.88;3.10;;;21.70;90.60;;;;;;4991872;28;20026;-74
2022/08/05 11:22:41;;;;;;;6.32;3.35;;;21.70;90.60;;;;;;4992280;28;20027;-75
2022/08/05 11:25:31;;;;;;;4.80;3.15;;;21.70;90.50;;;;;;4992207;28;20084;-75
2022/08/05 11:28:12;;;;;;;;;;;21.70;90.40;;;;;;4991386;28;20484;-75
2022/08/05 11:30:55;;;;;;;5.97;3.28;;;21.70;90.40;;;;;;4991627;28;20009;-74
2022/08/05 11:33:31;;;;;;;5.30;2.80;;;21.70;90.40;;;;;;4991943;28;20029;-75
2022/08/05 11:36:02;;;;;;;5.72;3.20;;;21.70;90.40;;;;;;4990726;28;20072;-75
2022/08/05 11:38:40;;;;;;;6.82;3.50;;;21.70;90.50;;;;;;4990704;28;20018;-75
2022/08/05 11:41:08;;;;;;;5.43;3.22;;;21.70;90.50;;;;;;4990385;28;20034;-75
2022/08/05 11:43:33;;;;;;;5.72;3.38;;;21.70;90.60;;;;;;4991941;28;20396;-76
2022/08/05 11:46:00;;;;;;;6.20;3.45;;;21.70;90.60;;;;;;4991964;28;20034;-74
2022/08/05 11:48:27;;;;;;;5.80;3.22;;;21.70;90.60;;;;;;4990632;28;20080;-75
2022/08/05 11:50:53;;;;;;;6.18;3.67;;;21.60;90.60;;;;;;4991719;28;20026;-75
2022/08/05 11:53:20;;;;;;;5.15;3.10;;;21.70;90.90;;;;;;4991774;28;20136;-74
2022/08/05 11:55:57;;;;;;;5.82;3.00;;;21.60;90.70;;;;;;4990502;28;20479;-75
2022/08/05 11:58:33;;;;;;;5.97;3.33;;;21.70;90.70;;;;;;4990536;28;20022;-75
2022/08/05 12:01:03;;;;;;;5.68;3.05;;;21.70;90.60;;;;;;4991451;28;20045;-75
2022/08/05 12:03:29;;;;;;;5.10;2.90;;;21.70;90.60;;;;;;4990623;28;20026;-75
2022/08/05 12:06:00;;;;;;;6.35;3.45;;;21.70;90.60;;;;;;4991655;28;20615;-75
2022/08/05 12:08:25;;;;;;;4.50;2.75;;;21.70;90.60;;;;;;4991774;28;20022;-75
2022/08/05 12:10:54;;;;;;;5.05;3.03;;;21.70;90.60;;;;;;4992833;28;20035;-75
2022/08/05 12:13:20;;;;;;;4.95;2.90;;;21.80;90.50;;;;;;4995458;28;20407;-75
2022/08/05 12:15:46;;;;;;;4.75;3.00;;;21.80;90.50;;;;;;4994265;28;20023;-74
2022/08/05 12:18:27;;;;;;;4.35;2.70;;;21.80;90.30;;;;;;4994128;28;20034;-75
2022/08/05 12:20:53;;;;;;;6.03;3.28;;;21.80;90.30;;;;;;4994879;28;20019;-74
2022/08/05 12:23:18;;;;;;;5.32;3.05;;;21.80;90.30;;;;;;4994169;28;20078;-74
2022/08/05 12:25:49;;;;;;;4.50;2.80;;;21.80;90.40;;;;;;4993906;28;20121;-75
2022/08/05 12:28:36;;;;;;;5.68;2.78;;;21.80;90.40;;;;;;4995061;28;20058;-75
2022/08/05 12:31:02;;;;;;;5.45;2.83;;;21.70;90.30;;;;;;4994726;28;20061;-75
2022/08/05 12:33:28;;;;;;;4.68;3.08;;;21.80;90.30;;;;;;4993932;28;20409;-75
2022/08/05 12:35:57;;;;;;;5.22;2.90;;;21.70;90.30;;;;;;4993827;28;20364;-74
2022/08/05 12:38:22;;;;;;;5.18;2.85;;;21.70;90.30;;;;;;4994906;28;20018;-75
2022/08/05 12:40:49;;;;;;;5.07;2.90;;;21.70;90.40;;;;;;4995155;28;20639;-75
2022/08/05 12:43:14;;;;;;;5.40;2.65;;;21.80;90.30;;;;;;4994891;28;20030;-75
2022/08/05 12:45:54;;;;;;;3.80;2.40;;;21.80;90.20;;;;;;4994639;28;20030;-75
2022/08/05 12:48:20;;;;;;;6.28;2.88;;;21.80;90.20;;;;;;4994926;28;20030;-75
2022/08/05 12:51:16;;;;;;;5.63;2.60;;;21.80;90.10;;;;;;4993174;28;20031;-75
2022/08/05 12:53:45;;;;;;;4.65;2.47;;;21.80;90.00;;;;;;4994562;28;20022;-74
2022/08/05 12:56:23;;;;;;;4.60;2.58;;;21.80;90.00;;;;;;4993390;28;20019;-75
2022/08/05 12:59:21;;;;;;;4.15;2.50;;;21.90;89.90;;;;;;5006387;28;20050;-74